Red Rock, Canada
Current Conditions -  °F | °C
As of 9:00 AM on Thursday 30 Oct 2014 (Local Time) from CYXS Reporting Station
Clear Clear  
Wind Chill: 32°   Ceiling: Unl
Heat Index: 37°   Visibility: 9mi
Dew Point: 37°   Wind: 7mph
Humidity: 100%   Direction: 360°N
Pressure: 29.84"   Gusts: NA
Location:  53.67°N, 122.65°W
Report Text: CYXS 301600Z AUTO 36006KT 9SM CLR 03/03 A2984 RMK SLP131
Loading
Personal Weather Stations






























Interactive Weather Map
Tropical Storm Tracking
New forecast layout! Learn more

10-Day Weather Forecast

Advertisements
Track Severe Weather on mobile